Time;durP1;ratioP1;P1;durP2;ratioP2;P2;SDS_P1;SDS_P2;PMS_P1;PMS_P2;Temp;Humidity;BMP_temperature;BMP_pressure;BME280_temperature;BME280_humidity;BME280_pressure;Samples;Min_cycle;Max_cycle;Signal;HPM_P1;HPM_P2
2022/03/16 00:00:25;;;;;;;4.97;1.60;;;;;;;0.08;59.73;101796.57;1757464;80;21021;-62
2022/03/16 00:02:55;;;;;;;4.40;2.15;;;;;;;0.05;59.76;101794.07;1757200;82;21461;-60
2022/03/16 00:05:24;;;;;;;4.15;1.92;;;;;;;0.04;59.69;101803.12;1757381;80;21473;-61
2022/03/16 00:07:54;;;;;;;3.80;2.00;;;;;;;0.04;59.62;101796.38;1757350;80;21087;-62
2022/03/16 00:10:24;;;;;;;4.45;1.92;;;;;;;0.02;59.56;101791.56;1757149;82;21030;-61
2022/03/16 00:12:53;;;;;;;5.95;2.00;;;;;;;-0.03;59.60;101803.08;1757506;82;21014;-61
2022/03/16 00:15:24;;;;;;;3.50;1.77;;;;;;;-0.06;59.46;101794.70;1757430;82;21093;-61
2022/03/16 00:17:53;;;;;;;3.65;1.77;;;;;;;-0.07;59.41;101798.36;1757362;80;21045;-61
2022/03/16 00:20:23;;;;;;;3.08;1.60;;;;;;;-0.07;59.42;101790.77;1757187;81;21009;-61
2022/03/16 00:22:54;;;;;;;3.97;1.93;;;;;;;-0.11;59.27;101794.61;1757093;80;21018;-62
2022/03/16 00:25:24;;;;;;;5.80;2.00;;;;;;;-0.13;59.23;101798.74;1757481;82;21050;-61
2022/03/16 00:27:54;;;;;;;4.72;1.90;;;;;;;-0.12;58.92;101796.92;1757171;82;21061;-62
2022/03/16 00:30:23;;;;;;;5.15;1.70;;;;;;;-0.18;58.71;101792.77;1757355;82;21045;-62
2022/03/16 00:32:55;;;;;;;2.92;1.50;;;;;;;-0.21;58.74;101797.00;1757190;82;21074;-62
2022/03/16 00:35:26;;;;;;;2.55;1.55;;;;;;;-0.24;58.41;101794.98;1757153;80;21007;-61
2022/03/16 00:37:55;;;;;;;4.00;1.77;;;;;;;-0.29;58.35;101797.09;1757161;82;21061;-62
2022/03/16 00:40:24;;;;;;;3.12;1.70;;;;;;;-0.30;58.25;101796.70;1757188;82;21026;-63
2022/03/16 00:42:53;;;;;;;4.62;1.62;;;;;;;-0.30;58.11;101796.22;1757355;82;21046;-61
2022/03/16 00:45:23;;;;;;;4.50;1.87;;;;;;;-0.33;57.92;101793.23;1730267;82;21517;-61
2022/03/16 00:47:54;;;;;;;4.10;2.00;;;;;;;-0.35;57.90;101796.98;1757107;82;22228;-61
2022/03/16 00:50:23;;;;;;;4.25;2.10;;;;;;;-0.39;57.78;101788.23;1757224;80;20986;-61
2022/03/16 00:52:53;;;;;;;3.90;2.17;;;;;;;-0.39;57.92;101794.95;1757221;82;21014;-63
2022/03/16 00:55:23;;;;;;;3.70;2.05;;;;;;;-0.40;57.86;101795.92;1757263;80;21426;-62
2022/03/16 00:57:52;;;;;;;3.98;1.80;;;;;;;-0.45;58.02;101796.67;1757233;82;21049;-61
2022/03/16 01:00:21;;;;;;;3.75;1.80;;;;;;;-0.46;58.07;101798.98;1757516;82;21018;-61
2022/03/16 01:02:53;;;;;;;4.33;1.80;;;;;;;-0.47;57.95;101797.25;1757309;82;21025;-61
2022/03/16 01:05:22;;;;;;;3.52;1.72;;;;;;;-0.51;57.90;101794.83;1757557;82;21026;-61
2022/03/16 01:07:51;;;;;;;3.30;1.60;;;;;;;-0.53;57.79;101796.75;1757360;81;21088;-62
2022/03/16 01:10:20;;;;;;;3.50;1.70;;;;;;;-0.55;57.69;101788.77;1757247;82;21014;-61
2022/03/16 01:12:49;;;;;;;2.45;1.25;;;;;;;-0.57;57.52;101793.37;1757252;82;21049;-62
2022/03/16 01:15:23;;;;;;;3.08;1.40;;;;;;;-0.56;57.19;101786.17;1757072;82;21005;-61
2022/03/16 01:17:51;;;;;;;3.85;1.62;;;;;;;-0.59;57.15;101779.14;1757199;81;21065;-62
2022/03/16 01:20:22;;;;;;;2.55;1.40;;;;;;;-0.62;57.09;101779.81;1757475;82;20994;-59
2022/03/16 01:22:51;;;;;;;3.65;1.50;;;;;;;-0.64;56.96;101779.91;1757202;80;21471;-61
2022/03/16 01:25:20;;;;;;;2.80;1.40;;;;;;;-0.64;56.92;101775.86;1757426;80;21046;-61
2022/03/16 01:27:49;;;;;;;4.35;1.50;;;;;;;-0.66;56.82;101778.61;1757247;82;21022;-61
2022/03/16 01:30:18;;;;;;;3.50;1.67;;;;;;;-0.68;56.61;101774.28;1757251;80;20994;-61
2022/03/16 01:32:47;;;;;;;3.33;1.35;;;;;;;-0.71;56.60;101778.50;1757302;80;21438;-62
2022/03/16 01:35:16;;;;;;;3.20;1.27;;;;;;;-0.74;56.59;101778.69;1757242;82;21398;-60
2022/03/16 01:37:45;;;;;;;3.25;1.85;;;;;;;-0.74;56.54;101772.82;1757468;82;21014;-62
2022/03/16 01:40:14;;;;;;;2.92;1.27;;;;;;;-0.71;56.56;101775.33;1757519;80;21006;-61
2022/03/16 01:42:44;;;;;;;3.20;1.30;;;;;;;-0.73;56.27;101774.55;1757208;82;21452;-62
2022/03/16 01:45:13;;;;;;;3.02;1.42;;;;;;;-0.77;56.36;101777.05;1757270;82;21050;-62
2022/03/16 01:47:43;;;;;;;3.00;1.10;;;;;;;-0.79;56.32;101777.61;1694899;84;21039;-61
2022/03/16 01:50:14;;;;;;;3.10;1.37;;;;;;;-0.78;56.27;101782.04;1694877;85;21062;-62
2022/03/16 01:52:43;;;;;;;3.17;1.12;;;;;;;-0.76;56.01;101781.95;1694852;84;21027;-63
2022/03/16 01:55:13;;;;;;;4.12;1.45;;;;;;;-0.79;55.83;101787.51;1672319;85;21050;-63
2022/03/16 01:57:46;;;;;;;2.87;1.30;;;;;;;-0.82;55.75;101783.18;1695034;84;21151;-62
2022/03/16 02:00:17;;;;;;;8.20;1.60;;;;;;;-0.82;55.83;101785.87;1672844;85;21042;-62
2022/03/16 02:02:47;;;;;;;1.87;1.25;;;;;;;-0.78;55.81;101779.83;1694807;85;21035;-64
2022/03/16 02:05:18;;;;;;;2.12;1.00;;;;;;;-0.77;55.67;101781.56;1653846;85;21019;-61
2022/03/16 02:07:48;;;;;;;2.15;1.05;;;;;;;-0.79;55.17;101786.16;1608464;89;21110;-62
2022/03/16 02:10:19;;;;;;;2.83;1.30;;;;;;;-0.83;55.20;101784.61;1608601;89;21586;-61
2022/03/16 02:12:51;;;;;;;2.72;1.30;;;;;;;-0.89;55.25;101789.02;1557605;91;21573;-62
2022/03/16 02:15:21;;;;;;;1.85;1.07;;;;;;;-0.94;55.38;101797.83;1554674;91;21115;-62
2022/03/16 02:17:54;;;;;;;2.05;1.05;;;;;;;-1.00;55.46;101789.16;1467201;98;21110;-61
2022/03/16 02:20:24;;;;;;;3.17;1.30;;;;;;;-1.02;55.60;101791.55;1458243;98;21123;-63
2022/03/16 02:23:06;;;;;;;1.82;1.20;;;;;;;-1.05;55.58;101794.42;1478880;95;21596;-61
2022/03/16 02:25:51;;;;;;;2.35;1.20;;;;;;;-1.11;55.78;101790.75;1510150;94;21265;-62
2022/03/16 02:28:22;;;;;;;3.10;1.20;;;;;;;-1.18;55.98;101791.58;1535155;93;21126;-61
2022/03/16 02:30:51;;;;;;;2.05;1.25;;;;;;;-1.17;56.18;101800.03;1525202;94;21054;-63
2022/03/16 02:33:22;;;;;;;2.72;1.20;;;;;;;-1.15;56.20;101793.22;1535105;93;21560;-61
2022/03/16 02:35:51;;;;;;;3.62;1.30;;;;;;;-1.15;56.27;101787.84;1525410;94;21082;-62
2022/03/16 02:38:21;;;;;;;2.72;1.25;;;;;;;-1.16;56.37;101801.77;1608342;88;21102;-59
2022/03/16 02:40:50;;;;;;;2.02;1.15;;;;;;;-1.18;56.44;101788.89;1620400;88;21477;-61
2022/03/16 02:43:19;;;;;;;1.87;0.80;;;;;;;-1.19;56.58;101783.12;1685491;84;21049;-61
2022/03/16 02:45:48;;;;;;;1.98;1.02;;;;;;;-1.17;56.60;101797.34;1698109;84;21045;-61
2022/03/16 02:48:17;;;;;;;1.75;0.90;;;;;;;-1.21;56.70;101796.27;1698131;83;21049;-62
2022/03/16 02:50:47;;;;;;;2.52;1.10;;;;;;;-1.24;56.76;101800.47;1698153;83;21045;-61
2022/03/16 02:53:16;;;;;;;1.50;0.98;;;;;;;-1.25;56.84;101800.08;1697931;83;21062;-61
2022/03/16 02:55:47;;;;;;;2.87;1.00;;;;;;;-1.28;56.94;101802.47;1697779;84;21038;-61
2022/03/16 02:58:16;;;;;;;2.08;1.05;;;;;;;-1.31;57.04;101797.23;1698172;84;21038;-64
2022/03/16 03:00:46;;;;;;;2.00;1.20;;;;;;;-1.31;57.14;101806.64;1697937;83;21032;-62
2022/03/16 03:03:17;;;;;;;2.15;0.90;;;;;;;-1.33;57.24;101804.52;1697905;83;21037;-62
2022/03/16 03:05:46;;;;;;;2.12;1.00;;;;;;;-1.33;57.35;101804.52;1697912;84;21041;-62
2022/03/16 03:08:15;;;;;;;1.90;0.80;;;;;;;-1.34;57.45;101799.63;1698208;84;21033;-62
2022/03/16 03:10:44;;;;;;;1.67;1.00;;;;;;;-1.38;57.50;101795.84;1698159;84;21053;-63
2022/03/16 03:13:13;;;;;;;2.00;0.90;;;;;;;-1.42;57.63;101804.56;1697967;84;21065;-62
2022/03/16 03:15:43;;;;;;;3.05;0.90;;;;;;;-1.44;57.82;101801.58;1706682;81;21031;-62
2022/03/16 03:18:12;;;;;;;2.10;0.90;;;;;;;-1.47;57.95;101799.92;1733170;83;21058;-62
2022/03/16 03:20:41;;;;;;;2.17;1.00;;;;;;;-1.49;58.07;101803.17;1733185;83;21042;-61
2022/03/16 03:23:12;;;;;;;2.80;1.12;;;;;;;-1.46;58.15;101799.45;1733216;83;21044;-62
2022/03/16 03:25:41;;;;;;;1.60;0.90;;;;;;;-1.43;58.19;101793.90;1733157;81;21054;-62
2022/03/16 03:28:10;;;;;;;2.00;1.10;;;;;;;-1.44;58.24;101805.12;1733077;81;21074;-62
2022/03/16 03:30:40;;;;;;;2.37;1.10;;;;;;;-1.44;58.47;101801.58;1733198;81;21489;-62
2022/03/16 03:33:10;;;;;;;2.60;1.30;;;;;;;-1.50;58.59;101804.61;1733454;83;21450;-63
2022/03/16 03:35:39;;;;;;;1.90;1.00;;;;;;;-1.52;58.73;101803.83;1733455;82;21026;-61
2022/03/16 03:38:08;;;;;;;2.02;1.02;;;;;;;-1.53;58.84;101800.75;1733502;81;21071;-61
2022/03/16 03:40:37;;;;;;;3.17;1.10;;;;;;;-1.53;58.96;101814.19;1733355;82;21455;-63
2022/03/16 03:43:06;;;;;;;1.87;0.88;;;;;;;-1.52;59.01;101814.58;1733430;83;21027;-61
2022/03/16 03:45:36;;;;;;;2.65;0.98;;;;;;;-1.52;59.16;101811.89;1733161;81;21033;-62
2022/03/16 03:48:05;;;;;;;1.67;0.80;;;;;;;-1.56;59.15;101812.53;1733483;83;21463;-63
2022/03/16 03:50:36;;;;;;;1.85;1.00;;;;;;;-1.58;59.23;101814.92;1733170;81;21004;-62
2022/03/16 03:53:05;;;;;;;2.47;1.07;;;;;;;-1.60;59.40;101815.00;1733299;81;21038;-62
2022/03/16 03:55:35;;;;;;;2.17;1.10;;;;;;;-1.64;59.49;101816.99;1733291;82;21102;-63
2022/03/16 03:58:04;;;;;;;2.22;1.00;;;;;;;-1.66;59.69;101822.93;1733363;82;21030;-62
2022/03/16 04:00:35;;;;;;;1.90;1.00;;;;;;;-1.66;59.75;101823.41;1733448;82;21023;-62
2022/03/16 04:03:04;;;;;;;2.42;1.02;;;;;;;-1.66;59.92;101819.38;1732984;81;21063;-61
2022/03/16 04:05:33;;;;;;;2.45;1.05;;;;;;;-1.68;60.02;101817.25;1733162;83;21050;-61
2022/03/16 04:08:02;;;;;;;2.52;1.12;;;;;;;-1.71;60.18;101822.31;1733338;81;21544;-62
2022/03/16 04:10:30;;;;;;;1.65;1.00;;;;;;;-1.70;60.32;101821.36;1733473;82;21027;-62
2022/03/16 04:12:59;;;;;;;2.42;1.10;;;;;;;-1.73;60.44;101820.66;1733363;83;21058;-61
2022/03/16 04:15:30;;;;;;;1.95;1.25;;;;;;;-1.81;60.62;101817.53;1733200;82;21443;-63
2022/03/16 04:17:59;;;;;;;3.72;1.20;;;;;;;-1.83;60.85;101821.64;1733173;82;21011;-62
2022/03/16 04:20:28;;;;;;;2.25;1.20;;;;;;;-1.80;60.90;101818.79;1733347;81;21046;-62
2022/03/16 04:22:59;;;;;;;2.15;1.37;;;;;;;-1.79;60.93;101825.90;1733181;82;21051;-62
2022/03/16 04:25:28;;;;;;;2.90;1.50;;;;;;;-1.76;60.99;101824.86;1733520;83;21463;-62
2022/03/16 04:27:58;;;;;;;3.20;1.20;;;;;;;-1.76;61.06;101827.55;1733462;83;21029;-61
2022/03/16 04:30:27;;;;;;;2.77;1.30;;;;;;;-1.79;61.21;101821.87;1733467;81;21011;-60
2022/03/16 04:32:56;;;;;;;3.72;1.32;;;;;;;-1.81;61.33;101819.73;1733327;83;21046;-62
2022/03/16 04:35:25;;;;;;;4.78;1.35;;;;;;;-1.83;61.43;101820.30;1733508;82;20991;-61
2022/03/16 04:37:54;;;;;;;2.77;1.17;;;;;;;-1.88;61.59;101829.56;1733337;83;21062;-62
2022/03/16 04:40:25;;;;;;;3.15;1.22;;;;;;;-1.89;61.74;101830.03;1733281;81;21412;-62
2022/03/16 04:42:55;;;;;;;2.67;1.10;;;;;;;-1.92;61.86;101830.20;1733273;83;21083;-62
2022/03/16 04:45:25;;;;;;;3.55;1.50;;;;;;;-1.95;62.06;101828.55;1733200;82;21167;-63
2022/03/16 04:47:54;;;;;;;2.42;1.22;;;;;;;-1.97;62.21;101829.07;1733174;81;21019;-62
2022/03/16 04:50:23;;;;;;;2.75;1.30;;;;;;;-1.98;62.34;101831.84;1733578;82;21031;-62
2022/03/16 04:52:51;;;;;;;2.35;1.50;;;;;;;-1.95;62.41;101837.08;1733221;81;21063;-63
2022/03/16 04:55:22;;;;;;;4.90;1.37;;;;;;;-1.94;62.43;101830.76;1733220;83;21502;-61
2022/03/16 04:57:51;;;;;;;2.92;1.30;;;;;;;-1.92;62.48;101831.55;1733506;81;21058;-62
2022/03/16 05:00:20;;;;;;;3.75;1.50;;;;;;;-1.91;62.61;101833.28;1733468;83;21035;-62
2022/03/16 05:02:49;;;;;;;2.80;1.30;;;;;;;-1.97;62.63;101833.09;1733430;83;21043;-62
2022/03/16 05:05:20;;;;;;;2.05;1.32;;;;;;;-1.99;62.81;101836.34;1733508;81;21047;-61
2022/03/16 05:07:49;;;;;;;2.72;1.32;;;;;;;-1.98;62.92;101839.89;1733382;83;21015;-62
2022/03/16 05:10:18;;;;;;;2.70;1.30;;;;;;;-1.99;62.98;101840.37;1733437;81;21011;-61
2022/03/16 05:12:47;;;;;;;2.45;1.40;;;;;;;-1.97;63.06;101838.95;1733364;83;21039;-63
2022/03/16 05:15:18;;;;;;;4.17;1.52;;;;;;;-1.94;63.15;101845.05;1733521;83;21019;-62
2022/03/16 05:17:48;;;;;;;5.62;1.32;;;;;;;-1.94;63.13;101843.72;1733094;80;21488;-62
2022/03/16 05:20:18;;;;;;;3.80;1.50;;;;;;;-1.92;63.17;101857.06;1733388;81;21043;-61
2022/03/16 05:22:51;;;;;;;1.90;1.25;;;;;;;-1.88;63.23;101855.95;1733278;81;21019;-60
2022/03/16 05:25:25;;;;;;;3.55;1.50;;;;;;;-1.82;63.22;101855.61;1733308;81;21070;-62
2022/03/16 05:27:55;;;;;;;5.12;1.32;;;;;;;-1.80;63.15;101852.38;1733209;81;21007;-61
2022/03/16 05:30:26;;;;;;;2.83;1.57;;;;;;;-1.80;63.29;101864.94;1733181;83;21094;-62
2022/03/16 05:33:00;;;;;;;3.33;1.50;;;;;;;-1.85;63.44;101861.63;1733200;83;21062;-62
2022/03/16 05:35:29;;;;;;;6.62;1.52;;;;;;;-1.92;63.66;101862.44;1733225;82;21041;-62
2022/03/16 05:38:00;;;;;;;3.08;1.52;;;;;;;-1.93;63.74;101863.38;1733168;83;21015;-61
2022/03/16 05:40:29;;;;;;;3.98;1.77;;;;;;;-1.97;63.91;101858.62;1733382;83;21067;-62
2022/03/16 05:42:58;;;;;;;2.92;1.40;;;;;;;-1.98;64.03;101864.07;1733525;81;21055;-61
2022/03/16 05:45:27;;;;;;;3.00;1.55;;;;;;;-1.94;64.08;101863.86;1733196;81;21063;-61
2022/03/16 05:47:56;;;;;;;2.55;1.30;;;;;;;-1.90;64.14;101857.84;1733177;81;21078;-62
2022/03/16 05:50:28;;;;;;;2.75;1.40;;;;;;;-1.88;64.19;101864.48;1733476;83;21011;-62
2022/03/16 05:52:59;;;;;;;3.67;1.32;;;;;;;-1.92;64.38;101871.36;1733264;82;21070;-62
2022/03/16 05:55:28;;;;;;;3.02;1.75;;;;;;;-1.94;64.49;101860.30;1733274;81;21015;-61
2022/03/16 05:57:57;;;;;;;4.08;1.60;;;;;;;-1.91;64.44;101869.55;1733382;81;21059;-62
2022/03/16 06:00:28;;;;;;;2.75;1.50;;;;;;;-1.88;64.44;101874.75;1733233;81;21043;-61
2022/03/16 06:02:59;;;;;;;3.05;1.62;;;;;;;-1.84;64.38;101870.95;1733220;83;21055;-62
2022/03/16 06:05:30;;;;;;;4.72;2.08;;;;;;;-1.78;64.32;101875.99;1733486;83;21015;-62
2022/03/16 06:08:01;;;;;;;3.90;1.70;;;;;;;-1.75;64.26;101879.86;1733193;83;21031;-62
2022/03/16 06:10:31;;;;;;;3.75;1.62;;;;;;;-1.78;64.27;101880.02;1733219;81;21026;-62
2022/03/16 06:13:03;;;;;;;3.10;1.70;;;;;;;-1.75;64.28;101881.20;1733482;81;21011;-62
2022/03/16 06:15:39;;;;;;;3.52;1.50;;;;;;;-1.75;64.29;101875.83;1733364;83;21047;-62
2022/03/16 06:18:11;;;;;;;2.58;1.50;;;;;;;-1.70;64.25;101880.48;1753831;82;21030;-62
2022/03/16 06:20:40;;;;;;;5.45;1.55;;;;;;;-1.68;64.15;101883.95;1757330;82;21010;-63
2022/03/16 06:23:09;;;;;;;5.00;1.82;;;;;;;-1.64;64.13;101884.66;1757011;80;21026;-62
2022/03/16 06:25:40;;;;;;;4.58;1.90;;;;;;;-1.61;64.04;101881.33;1757336;81;21042;-62
2022/03/16 06:28:08;;;;;;;4.60;1.62;;;;;;;-1.57;64.02;101873.95;1730253;82;21450;-59
2022/03/16 06:30:39;;;;;;;3.02;1.72;;;;;;;-1.57;63.99;101874.44;1757299;81;21021;-63
2022/03/16 06:33:09;;;;;;;2.90;1.45;;;;;;;-1.55;64.00;101879.25;1757352;82;21403;-63
2022/03/16 06:35:38;;;;;;;4.97;1.75;;;;;;;-1.52;63.96;101889.83;1757003;80;21061;-62
2022/03/16 06:38:09;;;;;;;3.98;1.70;;;;;;;-1.49;63.91;101880.26;1666815;85;21539;-62
2022/03/16 06:40:39;;;;;;;4.17;2.00;;;;;;;-1.46;63.85;101880.09;1666843;86;21511;-61
2022/03/16 06:43:08;;;;;;;2.60;1.65;;;;;;;-1.42;63.73;101890.59;1666871;86;21483;-62
2022/03/16 06:45:37;;;;;;;4.05;1.77;;;;;;;-1.38;63.59;101885.91;1666895;86;21183;-61
2022/03/16 06:48:06;;;;;;;5.55;1.85;;;;;;;-1.39;63.51;101889.08;1667184;86;21047;-62
2022/03/16 06:50:35;;;;;;;3.98;1.92;;;;;;;-1.38;63.50;101886.78;1666658;86;21074;-64
2022/03/16 06:53:05;;;;;;;4.97;2.12;;;;;;;-1.31;63.41;101888.66;1667016;86;21479;-62
2022/03/16 06:55:34;;;;;;;4.53;1.87;;;;;;;-1.26;63.31;101886.61;1666683;86;21062;-62
2022/03/16 06:58:03;;;;;;;4.60;2.00;;;;;;;-1.20;63.08;101884.05;1666841;86;21094;-63
2022/03/16 07:00:34;;;;;;;3.85;1.90;;;;;;;-1.19;62.95;101888.00;1666954;86;21098;-63
2022/03/16 07:03:08;;;;;;;3.08;1.60;;;;;;;-1.16;62.79;101885.62;1723137;82;21465;-62
2022/03/16 07:05:40;;;;;;;3.65;2.08;;;;;;;-1.13;62.62;101882.27;1757137;82;21066;-62
2022/03/16 07:08:11;;;;;;;4.17;1.95;;;;;;;-1.07;62.46;101896.72;1757254;81;21049;-63
2022/03/16 07:10:43;;;;;;;4.72;1.90;;;;;;;-1.05;62.07;101893.47;1757101;82;21013;-64
2022/03/16 07:13:13;;;;;;;4.85;1.98;;;;;;;-1.02;62.05;101888.39;1694734;84;21039;-63
2022/03/16 07:15:44;;;;;;;5.97;2.33;;;;;;;-0.97;61.64;101894.37;1694873;85;21079;-62
2022/03/16 07:18:13;;;;;;;4.37;2.05;;;;;;;-0.94;61.49;101893.34;1689041;84;21063;-62
2022/03/16 07:20:43;;;;;;;5.87;1.87;;;;;;;-0.87;61.45;101910.86;1687538;85;21552;-62
2022/03/16 07:23:14;;;;;;;4.90;1.80;;;;;;;-0.83;61.14;101903.01;1687649;85;21129;-63
2022/03/16 07:25:48;;;;;;;4.30;2.30;;;;;;;-0.80;61.05;101901.01;1687385;85;21043;-62
2022/03/16 07:28:17;;;;;;;4.00;2.05;;;;;;;-0.77;60.69;101901.31;1687374;85;21111;-63
2022/03/16 07:30:47;;;;;;;4.05;1.95;;;;;;;-0.74;60.13;101904.69;1703056;82;21486;-61
2022/03/16 07:33:18;;;;;;;4.53;2.20;;;;;;;-0.67;59.98;101901.17;1751933;80;21065;-62
2022/03/16 07:35:48;;;;;;;4.60;1.98;;;;;;;-0.60;59.81;101912.00;1751895;82;21073;-62
2022/03/16 07:38:33;;;;;;;5.10;2.22;;;;;;;-0.54;59.28;101898.19;1751875;81;21042;-61
2022/03/16 07:41:15;;;;;;;3.67;1.95;;;;;;;-0.51;59.00;101899.35;1752303;82;21015;-62
2022/03/16 07:43:44;;;;;;;4.90;2.08;;;;;;;-0.49;58.67;101896.57;1752017;82;21097;-62
2022/03/16 07:46:13;;;;;;;4.08;2.10;;;;;;;-0.47;58.64;101892.83;1752078;82;21029;-64
2022/03/16 07:48:43;;;;;;;4.85;2.05;;;;;;;-0.44;58.31;101898.03;1751830;82;21057;-63
2022/03/16 07:51:14;;;;;;;3.52;1.95;;;;;;;-0.42;58.22;101900.16;1751893;82;21081;-62
2022/03/16 07:53:44;;;;;;;3.83;2.10;;;;;;;-0.39;58.31;101887.86;1751813;80;21041;-62
2022/03/16 07:56:13;;;;;;;4.90;2.00;;;;;;;-0.34;58.12;101888.93;1751859;82;21038;-62
2022/03/16 07:58:45;;;;;;;4.35;2.02;;;;;;;-0.31;58.01;101895.48;1752190;81;21049;-63
2022/03/16 08:01:13;;;;;;;4.90;2.10;;;;;;;-0.18;58.10;101906.39;1751758;80;21062;-62
2022/03/16 08:03:43;;;;;;;5.45;1.85;;;;;;;0.09;57.86;101904.75;1751701;82;21057;-63
2022/03/16 08:06:12;;;;;;;4.58;1.82;;;;;;;0.59;57.10;101899.39;1752190;80;21022;-62
2022/03/16 08:08:41;;;;;;;3.20;1.82;;;;;;;1.22;55.94;101893.05;1752191;82;20995;-62
2022/03/16 08:11:09;;;;;;;4.70;1.62;;;;;;;1.87;52.84;101898.59;1752054;82;21522;-62
2022/03/16 08:13:38;;;;;;;3.05;1.50;;;;;;;2.35;50.69;101895.32;1751829;80;21018;-61
2022/03/16 08:16:08;;;;;;;5.55;1.72;;;;;;;2.72;49.34;101890.89;1752074;80;21450;-62
2022/03/16 08:18:38;;;;;;;3.55;1.52;;;;;;;3.15;47.71;101880.48;1755498;82;21480;-62
2022/03/16 08:21:07;;;;;;;2.90;1.67;;;;;;;3.48;46.32;101875.78;1757474;82;21042;-62
2022/03/16 08:23:37;;;;;;;3.67;1.85;;;;;;;3.79;45.38;101885.14;1757172;80;21484;-61
2022/03/16 08:26:08;;;;;;;4.20;2.12;;;;;;;4.01;44.95;101878.47;1757147;80;21046;-63
2022/03/16 08:28:39;;;;;;;3.80;1.87;;;;;;;4.18;44.66;101879.00;1757265;82;21018;-62
2022/03/16 08:31:10;;;;;;;5.67;2.33;;;;;;;4.46;44.79;101875.84;1757237;82;21053;-62
2022/03/16 08:33:39;;;;;;;3.30;1.60;;;;;;;4.80;43.79;101875.38;1757145;80;21030;-62
2022/03/16 08:36:08;;;;;;;3.17;1.70;;;;;;;5.06;42.70;101875.47;1757470;82;21006;-62
2022/03/16 08:38:37;;;;;;;2.85;1.72;;;;;;;5.32;41.06;101875.20;1757355;82;21041;-62
2022/03/16 08:41:06;;;;;;;3.87;2.05;;;;;;;5.46;40.55;101882.20;1757197;82;21070;-63
2022/03/16 08:43:37;;;;;;;4.37;1.47;;;;;;;5.67;39.35;101881.26;1757343;82;21022;-62
2022/03/16 08:46:06;;;;;;;3.77;2.27;;;;;;;5.76;39.30;101890.48;1757282;82;21097;-62
2022/03/16 08:48:37;;;;;;;3.47;2.05;;;;;;;5.81;38.44;101882.80;1757188;82;21030;-61
2022/03/16 08:51:08;;;;;;;3.95;2.10;;;;;;;5.81;38.92;101882.80;1757161;80;21426;-62
2022/03/16 08:53:37;;;;;;;4.67;2.15;;;;;;;5.79;38.33;101886.16;1757162;80;21045;-62
2022/03/16 08:56:06;;;;;;;3.75;2.20;;;;;;;5.79;37.85;101882.57;1757190;82;21049;-62
2022/03/16 08:58:37;;;;;;;2.95;2.10;;;;;;;5.69;37.60;101879.77;1757172;82;21461;-62
2022/03/16 09:01:08;;;;;;;4.12;2.22;;;;;;;5.53;37.39;101883.41;1757229;80;21073;-62
2022/03/16 09:03:40;;;;;;;4.03;2.00;;;;;;;5.35;38.04;101883.96;1757287;80;21014;-64
2022/03/16 09:06:09;;;;;;;4.03;2.15;;;;;;;5.21;38.19;101884.24;1757156;82;20994;-63
2022/03/16 09:08:38;;;;;;;4.20;2.20;;;;;;;5.13;37.62;101888.55;1757438;80;21041;-63
2022/03/16 09:11:07;;;;;;;5.87;2.60;;;;;;;4.99;37.57;101881.53;1757219;82;21022;-62
2022/03/16 09:13:37;;;;;;;5.10;2.33;;;;;;;4.78;37.34;101884.14;1757439;80;20994;-62
2022/03/16 09:16:06;;;;;;;3.67;2.25;;;;;;;4.56;37.68;101892.28;1757393;82;21058;-61
2022/03/16 09:18:35;;;;;;;3.50;1.85;;;;;;;4.39;37.71;101892.23;1741413;82;21030;-62
2022/03/16 09:21:04;;;;;;;4.80;2.02;;;;;;;4.33;36.38;101896.79;1733345;83;20996;-60
2022/03/16 09:23:34;;;;;;;3.33;2.00;;;;;;;4.26;36.77;101894.19;1733557;83;21047;-62
2022/03/16 09:26:05;;;;;;;4.22;1.92;;;;;;;4.18;36.94;101885.29;1733226;81;21055;-61
2022/03/16 09:28:34;;;;;;;4.33;1.70;;;;;;;4.06;36.83;101892.54;1733448;82;20999;-62
2022/03/16 09:31:04;;;;;;;3.10;1.70;;;;;;;4.03;36.33;101890.55;1733564;83;21043;-61
2022/03/16 09:33:34;;;;;;;2.37;1.32;;;;;;;4.06;36.81;101888.47;1733370;83;21086;-63
2022/03/16 09:36:08;;;;;;;3.52;1.72;;;;;;;4.06;36.49;101891.67;1733395;83;21050;-62
2022/03/16 09:38:36;;;;;;;3.27;1.55;;;;;;;3.96;36.18;101887.95;1733497;83;21023;-62
2022/03/16 09:41:06;;;;;;;2.83;1.50;;;;;;;3.85;37.10;101888.74;1733325;81;21050;-62
2022/03/16 09:43:38;;;;;;;2.30;1.40;;;;;;;3.87;36.78;101885.91;1733384;83;21066;-63
2022/03/16 09:46:12;;;;;;;2.80;1.07;;;;;;;3.84;36.33;101895.14;1733364;83;21062;-63
2022/03/16 09:48:40;;;;;;;2.00;1.10;;;;;;;3.82;36.01;101894.41;1733424;83;21459;-63
2022/03/16 09:51:09;;;;;;;2.75;1.15;;;;;;;3.82;35.40;101898.47;1733285;83;21539;-62
2022/03/16 09:53:38;;;;;;;3.10;1.20;;;;;;;3.86;35.27;101899.96;1733004;81;21011;-62
2022/03/16 09:56:09;;;;;;;1.32;0.82;;;;;;;3.83;35.05;101900.20;1733204;81;21078;-62
2022/03/16 09:58:38;;;;;;;1.50;1.00;;;;;;;3.80;35.56;101912.63;1733206;83;21015;-62
2022/03/16 10:01:07;;;;;;;1.80;1.20;;;;;;;3.79;35.57;101902.77;1733326;83;21031;-63
2022/03/16 10:03:37;;;;;;;2.80;1.20;;;;;;;3.77;35.73;101896.59;1733350;81;21584;-61
2022/03/16 10:06:08;;;;;;;2.30;1.30;;;;;;;3.76;36.09;101903.00;1733239;83;21027;-63
2022/03/16 10:08:38;;;;;;;2.83;1.40;;;;;;;3.79;36.76;101889.21;1733455;81;21076;-63
2022/03/16 10:14:14;;;;;;;2.70;1.20;;;;;;;3.85;37.20;101896.88;1733657;81;20991;-63
2022/03/16 10:19:54;;;;;;;2.25;1.27;;;;;;;3.79;38.24;101902.77;1733160;81;21019;-62
2022/03/16 10:22:30;;;;;;;2.17;1.30;;;;;;;3.72;38.07;101898.80;1733312;83;21051;-62
2022/03/16 10:25:07;;;;;;;2.33;1.20;;;;;;;3.72;37.91;101896.95;1733414;81;21050;-63
2022/03/16 10:27:36;;;;;;;2.17;1.20;;;;;;;3.75;38.09;101902.62;1733330;82;21237;-63
2022/03/16 10:30:08;;;;;;;2.37;1.37;;;;;;;3.75;37.98;101895.85;1733212;83;21472;-62
2022/03/16 10:32:39;;;;;;;3.17;1.50;;;;;;;3.76;38.15;101897.09;1733071;82;21440;-62
2022/03/16 10:35:08;;;;;;;6.37;1.62;;;;;;;3.75;38.03;101899.42;1733217;83;22031;-63
2022/03/16 10:37:37;;;;;;;3.35;1.70;;;;;;;3.71;37.95;101903.84;1733178;81;21019;-62
2022/03/16 10:40:17;;;;;;;4.67;1.70;;;;;;;3.66;38.20;101900.62;1733777;82;21027;-62
2022/03/16 10:48:24;;;;;;;3.75;1.40;;;;;;;3.65;38.04;101902.95;1733371;83;21051;-62
2022/03/16 10:50:58;;;;;;;2.47;1.22;;;;;;;3.60;37.91;101899.73;1733492;82;21070;-63
2022/03/16 10:53:30;;;;;;;3.55;1.25;;;;;;;3.60;37.90;101903.80;1733446;81;21047;-62
2022/03/16 10:55:59;;;;;;;4.30;3.15;;;;;;;3.63;37.54;101895.43;1733217;83;21019;-62
2022/03/16 10:58:32;;;;;;;2.75;1.57;;;;;;;3.67;37.72;101906.41;1679685;85;21491;-63
2022/03/16 11:01:03;;;;;;;2.62;1.20;;;;;;;3.72;37.86;101909.64;1679730;85;21027;-63
2022/03/16 11:03:34;;;;;;;2.27;1.40;;;;;;;3.72;37.97;101906.93;1679511;85;21205;-62
2022/03/16 11:06:04;;;;;;;1.87;1.17;;;;;;;3.73;37.84;101898.68;1657722;85;21469;-63
2022/03/16 11:08:35;;;;;;;2.37;1.25;;;;;;;3.74;37.92;101892.77;1679548;85;21040;-64
2022/03/16 11:13:27;;;;;;;3.27;1.72;;;;;;;3.70;38.10;101903.47;1679721;85;21023;-63
2022/03/16 11:13:37;;;;;;;2.55;1.37;;;;;;;3.69;38.68;101913.45;1676619;85;21494;-62
2022/03/16 11:16:06;;;;;;;3.67;1.87;;;;;;;3.70;38.79;101902.11;1694027;83;21027;-62
2022/03/16 11:18:38;;;;;;;3.75;1.62;;;;;;;3.66;39.06;101891.13;1718429;82;21046;-61
2022/03/16 11:21:11;;;;;;;3.00;1.60;;;;;;;3.67;39.22;101900.50;1749675;82;21041;-62
2022/03/16 11:27:02;;;;;;;2.90;1.52;;;;;;;3.66;39.31;101894.70;1749559;82;21034;-62
2022/03/16 11:29:41;;;;;;;1.98;1.27;;;;;;;3.69;39.25;101896.32;1696643;82;21006;-63
2022/03/16 11:32:15;;;;;;;5.65;1.55;;;;;;;3.72;38.39;101893.38;1749538;80;21002;-62
2022/03/16 11:34:58;;;;;;;2.65;1.52;;;;;;;3.69;37.76;101903.96;1749675;82;21487;-63
2022/03/16 11:37:51;;;;;;;3.50;1.60;;;;;;;3.64;37.56;101892.60;1748917;82;21438;-62
2022/03/16 11:40:25;;;;;;;2.33;1.30;;;;;;;3.58;37.87;101890.84;1749634;80;21415;-63
2022/03/16 11:43:12;;;;;;;4.20;1.35;;;;;;;3.58;38.14;101885.42;1749614;82;21030;-62
2022/03/16 11:45:57;;;;;;;2.80;1.67;;;;;;;3.62;37.55;101884.22;1749400;81;21042;-65
2022/03/16 11:48:35;;;;;;;2.92;1.15;;;;;;;3.65;37.22;101887.55;1749669;82;21050;-63
2022/03/16 11:51:19;;;;;;;2.08;1.30;;;;;;;3.71;36.93;101881.66;1748429;81;21074;-63
2022/03/16 11:53:58;;;;;;;2.75;1.50;;;;;;;3.77;36.68;101883.91;1749645;82;21034;-62
2022/03/16 11:56:44;;;;;;;3.55;1.20;;;;;;;3.79;36.02;101879.72;1749303;82;21057;-62